Time;durP1;ratioP1;P1;durP2;ratioP2;P2;SDS_P1;SDS_P2;PMS_P1;PMS_P2;Temp;Humidity;BMP_temperature;BMP_pressure;BME280_temperature;BME280_humidity;BME280_pressure;Samples;Min_cycle;Max_cycle;Signal;HPM_P1;HPM_P2
2021/12/05 10:38:08;;;;;;;26.90;14.00;;;4.30;99.90;;;;;;5093896;28;20062;-62
2021/12/05 10:40:45;;;;;;;27.20;12.88;;;4.40;99.90;;;;;;5111411;28;20051;-63
2021/12/05 10:43:23;;;;;;;29.35;12.43;;;4.40;99.90;;;;;;5111583;28;20044;-62
2021/12/05 10:45:53;;;;;;;24.00;12.93;;;4.70;99.90;;;;;;5111189;28;20048;-63
2021/12/05 10:48:31;;;;;;;24.25;12.88;;;4.40;99.90;;;;;;5110797;28;20479;-62
2021/12/05 10:51:13;;;;;;;25.42;12.25;;;4.40;99.90;;;;;;5111099;28;20048;-64
2021/12/05 10:53:40;;;;;;;19.88;12.02;;;4.40;99.90;;;;;;5114749;28;20044;-63
2021/12/05 10:56:15;;;;;;;21.52;12.25;;;4.40;99.90;;;;;;5120829;28;20051;-63
2021/12/05 10:58:43;;;;;;;20.08;11.88;;;4.40;99.90;;;;;;5100062;28;20120;-64
2021/12/05 11:01:33;;;;;;;21.88;12.00;;;4.30;99.90;;;;;;5121160;28;20544;-63
2021/12/05 11:04:08;;;;;;;20.67;11.30;;;4.40;99.90;;;;;;5121219;28;20391;-62
2021/12/05 11:06:39;;;;;;;17.40;10.65;;;4.40;99.90;;;;;;5117345;28;20039;-62
2021/12/05 11:09:12;;;;;;;18.08;10.68;;;4.40;99.90;;;;;;5103745;28;20048;-62
2021/12/05 11:11:40;;;;;;;20.33;10.35;;;4.30;99.90;;;;;;5121471;28;20043;-64
2021/12/05 11:14:23;;;;;;;20.15;10.20;;;4.30;99.90;;;;;;5101672;28;20047;-62
2021/12/05 11:16:54;;;;;;;18.40;9.77;;;4.30;99.90;;;;;;5120644;28;20066;-63
2021/12/05 11:19:41;;;;;;;17.52;9.65;;;4.30;99.90;;;;;;5100628;28;20078;-62
2021/12/05 11:22:15;;;;;;;19.60;9.90;;;4.30;99.90;;;;;;5120205;28;20048;-64
2021/12/05 11:24:47;;;;;;;21.63;11.05;;;4.30;99.90;;;;;;5092994;28;20047;-61
2021/12/05 11:27:32;;;;;;;18.42;10.18;;;4.30;99.90;;;;;;5121465;28;20444;-61
2021/12/05 11:30:10;;;;;;;20.92;10.48;;;4.30;99.90;;;;;;5129866;28;20414;-62
2021/12/05 11:33:00;;;;;;;21.38;10.40;;;4.30;99.90;;;;;;5130245;28;20089;-62
2021/12/05 11:35:37;;;;;;;21.10;10.68;;;4.30;99.90;;;;;;5098709;28;20044;-61
2021/12/05 11:38:07;;;;;;;;;;;4.30;99.90;;;;;;5099269;28;20168;-62
2021/12/05 11:40:48;;;;;;;22.60;11.10;;;4.30;99.90;;;;;;5098728;28;19920;-62
2021/12/05 11:43:18;;;;;;;17.95;10.40;;;4.40;99.90;;;;;;5116211;28;20472;-64
2021/12/05 11:46:01;;;;;;;21.70;10.30;;;4.40;99.90;;;;;;5115749;28;20045;-63
2021/12/05 11:48:56;;;;;;;20.45;10.45;;;4.40;99.90;;;;;;5098583;28;20055;-63
2021/12/05 11:51:31;;;;;;;18.50;11.38;;;4.40;99.90;;;;;;5098636;28;20059;-62
2021/12/05 11:53:59;;;;;;;18.27;10.18;;;4.40;99.90;;;;;;5116384;28;20048;-63
2021/12/05 11:56:31;;;;;;;20.15;10.52;;;4.50;99.90;;;;;;5081600;28;20122;-63
2021/12/05 11:59:41;;;;;;;15.90;9.80;;;4.40;99.90;;;;;;5116596;28;20057;-62
2021/12/05 12:02:10;;;;;;;26.08;10.30;;;4.40;99.90;;;;;;5053944;28;20054;-62
2021/12/05 12:05:06;;;;;;;19.27;10.35;;;4.40;99.90;;;;;;5098554;28;20070;-62
2021/12/05 12:07:35;;;;;;;19.95;9.23;;;;;;;;;;5116549;28;20047;-62
2021/12/05 12:10:36;;;;;;;17.85;8.90;;;4.40;99.90;;;;;;5098516;28;20130;-61
2021/12/05 12:13:28;;;;;;;18.23;9.35;;;4.40;99.90;;;;;;5111280;28;20058;-62
2021/12/05 12:15:59;;;;;;;17.35;8.82;;;;;;;;;;5116848;28;20048;-63
2021/12/05 12:18:30;;;;;;;19.27;9.23;;;;;;;;;;5098293;28;20058;-62
2021/12/05 12:21:00;;;;;;;13.63;7.80;;;4.40;99.90;;;;;;5099177;28;20051;-61
2021/12/05 12:23:27;;;;;;;16.90;9.18;;;4.40;99.90;;;;;;5097897;28;20052;-62
2021/12/05 12:25:54;;;;;;;21.10;9.88;;;;;;;;;;5098074;28;20048;-63
2021/12/05 12:28:21;;;;;;;18.60;9.82;;;4.40;99.90;;;;;;5098063;28;20059;-63
2021/12/05 12:31:00;;;;;;;16.77;8.52;;;4.40;99.90;;;;;;5116506;28;20047;-65
2021/12/05 12:33:36;;;;;;;17.10;8.30;;;3.70;99.90;;;;;;5097536;28;20388;-63
2021/12/05 12:36:04;;;;;;;14.32;7.75;;;4.40;99.90;;;;;;5097896;28;20050;-62
2021/12/05 12:38:32;;;;;;;16.67;8.20;;;4.00;99.90;;;;;;5116402;28;20043;-62
2021/12/05 12:41:22;;;;;;;13.05;7.82;;;4.50;99.90;;;;;;5115789;28;20097;-62
2021/12/05 12:43:52;;;;;;;15.98;7.95;;;4.20;99.90;;;;;;5116314;28;20058;-64
2021/12/05 12:46:30;;;;;;;14.77;8.45;;;;;;;;;;5109337;28;20047;-63
2021/12/05 12:49:20;;;;;;;20.63;8.65;;;4.30;99.90;;;;;;5104639;28;20139;-63
2021/12/05 12:51:51;;;;;;;14.32;8.90;;;4.60;99.90;;;;;;5098846;28;20064;-63
2021/12/05 12:54:17;;;;;;;19.75;8.70;;;;;;;;;;5093351;28;20052;-60
2021/12/05 12:57:12;;;;;;;16.33;8.68;;;4.60;99.90;;;;;;5105355;28;20048;-61
2021/12/05 12:59:56;;;;;;;14.88;8.35;;;4.70;99.90;;;;;;5104814;28;20056;-63
2021/12/05 13:02:32;;;;;;;16.25;8.00;;;4.70;99.90;;;;;;5105134;28;20078;-62
2021/12/05 13:05:17;;;;;;;17.30;7.93;;;4.70;99.90;;;;;;5104664;28;20105;-62
2021/12/05 13:10:41;;;;;;;15.02;8.75;;;4.80;99.90;;;;;;5100241;28;20062;-62
2021/12/05 13:13:18;;;;;;;15.18;9.15;;;4.90;99.90;;;;;;5102912;28;20048;-62
2021/12/05 13:15:53;;;;;;;14.82;8.20;;;4.90;99.90;;;;;;5103944;28;20075;-63
2021/12/05 13:18:23;;;;;;;15.02;7.85;;;4.90;99.90;;;;;;5097446;28;20048;-62
2021/12/05 13:20:57;;;;;;;14.93;8.40;;;4.90;99.90;;;;;;5079396;28;20368;-62
2021/12/05 13:23:31;;;;;;;16.50;7.30;;;4.90;99.90;;;;;;5104202;28;20051;-62
2021/12/05 13:26:11;;;;;;;17.92;8.30;;;5.00;99.90;;;;;;5076455;28;20477;-62
2021/12/05 13:28:44;;;;;;;14.13;8.32;;;5.00;99.90;;;;;;5094492;28;20098;-62
2021/12/05 13:31:28;;;;;;;11.57;8.13;;;4.90;99.90;;;;;;5076178;28;20048;-62
2021/12/05 13:34:27;;;;;;;11.00;6.85;;;4.90;99.90;;;;;;5092386;28;20109;-62
2021/12/05 13:36:56;;;;;;;15.13;7.82;;;4.90;99.90;;;;;;5074852;28;20043;-62
2021/12/05 13:40:02;;;;;;;13.52;7.65;;;6.10;99.90;;;;;;5094864;28;20369;-62
2021/12/05 13:42:56;;;;;;;15.35;7.30;;;4.90;99.90;;;;;;5094764;28;20079;-62
2021/12/05 13:45:29;;;;;;;11.82;6.95;;;4.90;99.90;;;;;;5076183;28;20111;-63
2021/12/05 13:47:55;;;;;;;11.80;7.15;;;4.80;99.90;;;;;;5092607;28;20044;-62
2021/12/05 13:50:29;;;;;;;13.00;7.97;;;4.90;99.90;;;;;;5093276;28;20058;-62
2021/12/05 13:53:07;;;;;;;13.75;7.50;;;4.90;99.90;;;;;;5076246;28;20055;-61
2021/12/05 13:55:44;;;;;;;11.73;8.02;;;4.80;99.90;;;;;;5076272;28;20055;-62
2021/12/05 13:58:23;;;;;;;12.27;7.82;;;4.90;99.90;;;;;;5094180;28;20070;-62
2021/12/05 14:01:11;;;;;;;15.27;8.90;;;4.90;99.90;;;;;;5094074;28;20083;-62
2021/12/05 14:03:54;;;;;;;11.35;7.55;;;4.90;99.90;;;;;;5075907;28;20048;-63
2021/12/05 14:06:28;;;;;;;14.82;8.23;;;4.90;99.90;;;;;;5076614;28;20147;-62
2021/12/05 14:08:56;;;;;;;13.52;7.93;;;4.90;99.90;;;;;;5075688;28;20109;-62
2021/12/05 14:11:27;;;;;;;12.63;7.88;;;4.90;99.90;;;;;;5076045;28;20425;-62
2021/12/05 14:13:53;;;;;;;14.32;7.82;;;5.50;99.90;;;;;;5093677;28;20048;-62
2021/12/05 14:16:20;;;;;;;13.10;7.75;;;6.10;99.90;;;;;;5094211;28;20400;-62
2021/12/05 14:18:47;;;;;;;16.13;8.13;;;5.10;99.90;;;;;;5093850;28;20048;-62
2021/12/05 14:21:19;;;;;;;14.10;8.38;;;4.80;99.90;;;;;;5093540;28;20508;-62
2021/12/05 14:23:56;;;;;;;14.48;8.45;;;4.90;99.90;;;;;;5072074;28;20083;-62
2021/12/05 14:26:25;;;;;;;12.73;8.00;;;4.90;99.90;;;;;;5073983;28;20458;-61
2021/12/05 14:29:11;;;;;;;14.05;8.40;;;4.80;99.90;;;;;;5072992;28;20478;-61
2021/12/05 14:31:41;;;;;;;13.35;8.20;;;4.80;99.90;;;;;;5074159;28;20052;-62
2021/12/05 14:34:09;;;;;;;16.80;8.35;;;5.70;99.90;;;;;;5072500;28;20247;-62
2021/12/05 14:36:46;;;;;;;16.60;8.20;;;4.80;99.90;;;;;;5073325;28;20052;-61
2021/12/05 14:39:17;;;;;;;18.70;8.32;;;4.80;99.90;;;;;;5072764;28;20049;-61
2021/12/05 14:41:45;;;;;;;14.32;8.07;;;4.80;99.90;;;;;;5073432;28;20048;-61
2021/12/05 14:44:12;;;;;;;20.67;8.93;;;4.80;99.90;;;;;;5072101;28;20045;-62
2021/12/05 14:46:52;;;;;;;20.02;9.60;;;4.80;99.90;;;;;;5073071;28;20082;-63
2021/12/05 14:49:22;;;;;;;13.63;8.32;;;4.80;99.90;;;;;;5073255;28;20052;-62
2021/12/05 14:51:48;;;;;;;15.68;8.38;;;5.00;99.90;;;;;;5073295;28;20113;-61
2021/12/05 14:54:21;;;;;;;13.98;9.20;;;4.80;99.90;;;;;;5073363;28;20056;-61
2021/12/05 14:56:47;;;;;;;14.18;8.82;;;4.80;99.90;;;;;;5073197;28;20123;-61
2021/12/05 14:59:14;;;;;;;15.30;8.30;;;4.80;99.90;;;;;;5073289;28;20485;-61
2021/12/05 15:01:43;;;;;;;13.43;8.52;;;4.80;99.90;;;;;;5073142;28;20044;-61
2021/12/05 15:04:10;;;;;;;13.35;8.38;;;4.80;99.90;;;;;;5071940;28;20110;-62
2021/12/05 15:06:42;;;;;;;17.35;8.10;;;5.10;99.90;;;;;;5073656;28;20048;-61
2021/12/05 15:09:25;;;;;;;14.98;7.80;;;4.80;99.90;;;;;;5073082;28;20060;-61
2021/12/05 15:11:54;;;;;;;15.45;8.52;;;4.80;99.90;;;;;;5076748;28;20114;-61
2021/12/05 15:14:20;;;;;;;15.07;8.32;;;5.80;99.90;;;;;;5075831;28;20091;-61
2021/12/05 15:16:54;;;;;;;;;;;4.80;99.90;;;;;;5077160;28;20067;-61
2021/12/05 15:19:20;;;;;;;17.40;9.13;;;4.80;99.90;;;;;;5076030;28;20014;-61
2021/12/05 15:21:45;;;;;;;18.67;9.63;;;4.80;99.90;;;;;;5076736;28;20194;-61
2021/12/05 15:24:17;;;;;;;17.70;10.10;;;4.80;99.90;;;;;;5092582;28;20062;-61
2021/12/05 15:26:43;;;;;;;15.65;9.52;;;5.70;99.90;;;;;;5097434;28;20126;-61
2021/12/05 15:29:10;;;;;;;16.27;8.68;;;;;;;;;;5079788;28;20439;-61
2021/12/05 15:31:39;;;;;;;18.08;9.90;;;4.70;99.90;;;;;;5079120;28;20048;-62
2021/12/05 15:34:28;;;;;;;14.38;8.98;;;4.70;99.90;;;;;;5078762;28;20059;-62
2021/12/05 15:36:55;;;;;;;15.07;9.23;;;4.80;99.90;;;;;;5078664;28;20044;-62
2021/12/05 15:39:24;;;;;;;16.20;9.75;;;4.70;99.90;;;;;;5096687;28;20050;-62
2021/12/05 15:41:53;;;;;;;15.48;9.77;;;4.80;99.90;;;;;;5096612;28;20056;-62
2021/12/05 15:44:28;;;;;;;18.73;9.48;;;4.80;99.90;;;;;;5078379;28;20044;-61
2021/12/05 15:47:18;;;;;;;17.35;9.27;;;4.80;99.90;;;;;;5096170;28;20525;-61
2021/12/05 15:50:00;;;;;;;15.73;10.10;;;4.80;99.90;;;;;;5078912;28;20472;-61
2021/12/05 15:52:35;;;;;;;14.57;9.35;;;4.70;99.90;;;;;;5096998;28;20047;-61
2021/12/05 15:55:06;;;;;;;14.80;8.40;;;4.80;99.90;;;;;;5096971;28;20055;-61
2021/12/05 15:57:35;;;;;;;14.77;9.40;;;4.80;99.90;;;;;;5078633;28;20054;-62
2021/12/05 16:00:06;;;;;;;18.58;9.95;;;4.80;99.90;;;;;;5078575;28;20127;-61
2021/12/05 16:02:32;;;;;;;18.20;10.23;;;4.80;99.90;;;;;;5078834;28;20048;-61
2021/12/05 16:04:59;;;;;;;18.27;9.88;;;4.80;99.90;;;;;;5096948;28;20345;-62
2021/12/05 16:07:25;;;;;;;;;;;4.80;99.90;;;;;;5078362;28;20131;-62
2021/12/05 16:09:51;;;;;;;16.20;11.23;;;4.80;99.90;;;;;;5078266;28;20405;-61
2021/12/05 16:12:20;;;;;;;16.13;11.07;;;4.80;99.90;;;;;;5078673;28;20127;-61
2021/12/05 16:14:52;;;;;;;16.73;10.23;;;4.70;99.90;;;;;;5095923;28;20090;-62
2021/12/05 16:17:25;;;;;;;16.25;10.60;;;4.80;99.90;;;;;;5078106;28;20055;-62
2021/12/05 16:20:22;;;;;;;15.43;10.20;;;4.70;99.90;;;;;;5095784;28;20050;-61
2021/12/05 16:22:56;;;;;;;15.50;9.88;;;4.80;99.90;;;;;;5057433;28;20056;-62
2021/12/05 16:25:23;;;;;;;14.07;9.38;;;4.70;99.90;;;;;;5077814;28;20060;-62
2021/12/05 16:27:49;;;;;;;;;;;4.70;99.90;;;;;;5077935;28;20476;-61
2021/12/05 16:30:27;;;;;;;18.45;10.98;;;4.70;99.90;;;;;;5078375;28;19973;-61
2021/12/05 16:32:53;;;;;;;18.88;10.88;;;4.70;99.90;;;;;;5095511;28;20075;-62
2021/12/05 16:35:31;;;;;;;17.58;11.70;;;4.70;99.90;;;;;;5077725;28;20048;-62
2021/12/05 16:37:57;;;;;;;17.67;11.13;;;4.70;99.90;;;;;;5077578;28;20056;-61
2021/12/05 16:40:23;;;;;;;20.00;13.07;;;4.70;99.90;;;;;;5095640;28;20494;-61
2021/12/05 16:43:07;;;;;;;20.60;13.10;;;4.70;99.90;;;;;;5078064;28;20048;-62
2021/12/05 16:45:39;;;;;;;22.30;12.70;;;4.60;99.90;;;;;;5078308;28;20063;-61
2021/12/05 16:48:05;;;;;;;19.23;12.57;;;4.90;99.90;;;;;;5077062;28;20048;-61
2021/12/05 16:50:31;;;;;;;;;;;4.60;99.90;;;;;;5077647;28;20044;-61
2021/12/05 16:52:57;;;;;;;22.90;12.90;;;4.60;99.90;;;;;;5094917;28;19927;-61
2021/12/05 16:55:27;;;;;;;21.30;13.38;;;4.60;99.90;;;;;;5095198;28;20131;-62
2021/12/05 16:58:06;;;;;;;25.80;13.25;;;4.70;99.90;;;;;;5077376;28;20047;-63
2021/12/05 17:00:36;;;;;;;19.70;13.43;;;4.60;99.90;;;;;;5095068;28;20125;-62
2021/12/05 17:03:06;;;;;;;26.48;13.85;;;5.00;99.90;;;;;;5077026;28;20040;-61
2021/12/05 17:05:45;;;;;;;25.50;14.80;;;4.70;99.90;;;;;;5077007;28;20059;-62
2021/12/05 17:08:23;;;;;;;21.05;13.70;;;4.60;99.90;;;;;;5077768;28;20058;-62
2021/12/05 17:10:56;;;;;;;26.55;14.27;;;4.60;99.90;;;;;;5076745;28;20498;-61
2021/12/05 17:13:28;;;;;;;25.38;14.23;;;4.60;99.90;;;;;;5077313;28;20134;-62
2021/12/05 17:15:58;;;;;;;26.48;14.50;;;4.60;99.90;;;;;;5076901;28;20123;-61
2021/12/05 17:18:47;;;;;;;22.65;14.40;;;4.60;99.90;;;;;;5095416;28;20447;-61
2021/12/05 17:21:14;;;;;;;21.08;14.23;;;4.60;99.90;;;;;;5076810;28;20064;-62
2021/12/05 17:23:56;;;;;;;29.55;15.65;;;4.70;99.90;;;;;;5072759;28;20484;-62
2021/12/05 17:26:29;;;;;;;33.67;17.70;;;4.60;99.90;;;;;;5074796;28;20155;-62
2021/12/05 17:29:17;;;;;;;28.20;15.65;;;4.60;99.90;;;;;;5073572;28;20048;-61
2021/12/05 17:31:49;;;;;;;29.02;18.10;;;4.50;99.90;;;;;;5072750;28;20088;-62
2021/12/05 17:34:25;;;;;;;33.25;19.30;;;4.50;99.90;;;;;;5074143;28;20123;-62
2021/12/05 17:36:59;;;;;;;32.38;19.08;;;4.50;99.90;;;;;;5073279;28;20087;-62
2021/12/05 17:39:35;;;;;;;32.47;18.58;;;4.50;99.90;;;;;;5073979;28;20052;-61
2021/12/05 17:42:05;;;;;;;32.60;19.70;;;4.50;99.90;;;;;;5074111;28;20040;-62
2021/12/05 17:44:31;;;;;;;33.38;20.25;;;4.40;99.90;;;;;;5073780;28;20124;-62
2021/12/05 17:47:00;;;;;;;34.00;20.60;;;4.50;99.90;;;;;;5073194;28;20045;-63
2021/12/05 17:49:28;;;;;;;33.22;20.85;;;4.40;99.90;;;;;;5072948;28;20565;-62
2021/12/05 17:51:58;;;;;;;30.90;19.80;;;4.40;99.90;;;;;;5073904;28;20052;-61
2021/12/05 17:54:53;;;;;;;34.28;20.50;;;4.40;99.90;;;;;;5073101;28;20202;-61
2021/12/05 17:57:17;;;;;;;36.17;22.98;;;4.40;99.90;;;;;;5073584;28;20057;-61
2021/12/05 18:05:24;;;;;;;39.42;24.05;;;4.30;99.90;;;;;;5072440;28;19934;-62
2021/12/05 18:07:53;;;;;;;41.67;23.65;;;4.30;99.90;;;;;;5072953;28;20128;-62
2021/12/05 18:10:25;;;;;;;40.38;23.17;;;4.30;99.90;;;;;;5073890;28;20135;-62
2021/12/05 18:12:53;;;;;;;39.78;23.85;;;5.00;99.90;;;;;;5074066;28;20085;-61
2021/12/05 18:15:26;;;;;;;40.05;24.65;;;4.40;99.90;;;;;;5072547;28;20105;-62
2021/12/05 18:17:53;;;;;;;39.00;22.77;;;4.30;99.90;;;;;;5073247;28;20045;-61
2021/12/05 18:20:25;;;;;;;40.75;23.48;;;4.30;99.90;;;;;;5073540;28;20051;-61
2021/12/05 18:22:58;;;;;;;37.90;23.75;;;4.30;99.90;;;;;;5075124;28;20416;-61
2021/12/05 18:25:24;;;;;;;39.17;23.58;;;4.30;99.90;;;;;;5094486;28;20059;-62
2021/12/05 18:27:50;;;;;;;35.58;22.52;;;4.30;99.90;;;;;;5093667;28;20144;-62
2021/12/05 18:30:19;;;;;;;38.85;23.75;;;4.50;99.90;;;;;;5075840;28;20063;-62
2021/12/05 18:32:45;;;;;;;37.47;24.02;;;4.30;99.90;;;;;;5094224;28;20123;-62
2021/12/05 18:35:12;;;;;;;42.25;25.13;;;4.30;99.90;;;;;;5075457;28;20050;-62
2021/12/05 18:37:41;;;;;;;38.45;22.75;;;4.20;99.90;;;;;;5080308;28;20507;-62
2021/12/05 18:40:08;;;;;;;38.45;24.38;;;4.20;99.90;;;;;;5092189;28;20087;-63
2021/12/05 18:42:34;;;;;;;39.20;23.67;;;4.20;99.90;;;;;;5076628;28;20036;-62
2021/12/05 18:45:03;;;;;;;40.20;24.58;;;4.20;99.90;;;;;;5096052;28;20052;-62
2021/12/05 18:47:29;;;;;;;40.45;23.88;;;4.20;99.90;;;;;;5097366;28;20047;-62
2021/12/05 18:49:56;;;;;;;43.60;26.90;;;4.20;99.90;;;;;;5079437;28;20048;-61
2021/12/05 18:52:24;;;;;;;39.40;23.55;;;4.20;99.90;;;;;;5098328;28;20113;-62
2021/12/05 18:54:51;;;;;;;41.85;24.23;;;4.20;99.90;;;;;;5097509;28;20106;-62
2021/12/05 18:57:22;;;;;;;41.20;24.40;;;4.50;99.90;;;;;;5078975;28;20430;-62
2021/12/05 18:59:57;;;;;;;40.10;24.33;;;4.90;99.90;;;;;;5097261;28;20131;-62
2021/12/05 19:05:13;;;;;;;39.35;25.33;;;4.20;99.90;;;;;;5090083;28;20055;-62
2021/12/05 19:08:03;;;;;;;39.05;24.05;;;4.20;99.90;;;;;;5088811;28;20040;-61
2021/12/05 19:13:09;;;;;;;39.55;24.33;;;4.20;99.90;;;;;;5081691;28;20393;-62
2021/12/05 19:15:35;;;;;;;42.58;25.52;;;4.70;99.90;;;;;;5097124;28;20044;-63
2021/12/05 19:18:01;;;;;;;39.08;24.17;;;4.10;99.90;;;;;;5097029;28;20099;-62
2021/12/05 19:20:28;;;;;;;35.20;22.13;;;4.10;99.90;;;;;;5097106;28;20047;-62
2021/12/05 19:22:55;;;;;;;36.90;23.58;;;4.10;99.90;;;;;;5078764;28;20055;-63
2021/12/05 19:25:25;;;;;;;37.47;23.60;;;4.10;99.90;;;;;;5096904;28;20524;-63
2021/12/05 19:27:52;;;;;;;36.70;24.05;;;4.10;99.90;;;;;;5096823;28;20052;-61
2021/12/05 19:30:31;;;;;;;34.25;22.63;;;4.00;99.90;;;;;;5096838;28;20056;-64
2021/12/05 19:32:59;;;;;;;37.65;23.45;;;4.00;99.90;;;;;;5097389;28;20479;-64
2021/12/05 19:35:26;;;;;;;38.15;23.90;;;4.00;99.90;;;;;;5078932;28;20055;-62
2021/12/05 19:37:52;;;;;;;37.47;22.67;;;4.00;99.90;;;;;;5094610;28;20055;-61
2021/12/05 19:40:21;;;;;;;38.28;23.55;;;4.00;99.90;;;;;;5094701;28;20048;-62
2021/12/05 19:42:49;;;;;;;39.90;24.27;;;3.90;99.90;;;;;;5096147;28;20067;-64
2021/12/05 19:45:16;;;;;;;34.75;22.15;;;3.90;99.90;;;;;;5078615;28;20101;-62
2021/12/05 19:47:42;;;;;;;29.58;20.75;;;3.90;99.90;;;;;;5096274;28;20055;-62
2021/12/05 19:50:13;;;;;;;34.15;22.35;;;3.90;99.90;;;;;;5078201;28;20051;-62
2021/12/05 19:52:39;;;;;;;30.92;21.17;;;3.90;99.90;;;;;;5096327;28;20123;-61
2021/12/05 19:55:07;;;;;;;33.97;21.60;;;3.80;99.90;;;;;;5077811;28;20044;-61
2021/12/05 19:57:35;;;;;;;30.27;22.20;;;3.80;99.90;;;;;;5096212;28;20135;-62
2021/12/05 20:00:04;;;;;;;32.53;21.60;;;4.10;99.90;;;;;;5097062;28;20495;-62
2021/12/05 20:02:30;;;;;;;30.92;21.65;;;3.70;99.90;;;;;;5077964;28;20051;-61
2021/12/05 20:04:56;;;;;;;32.90;22.15;;;3.70;99.90;;;;;;5078337;28;20052;-61
2021/12/05 20:07:23;;;;;;;31.70;21.77;;;3.70;99.90;;;;;;5095490;28;20097;-62
2021/12/05 20:09:49;;;;;;;29.80;19.90;;;3.70;99.90;;;;;;5098317;28;20047;-62
2021/12/05 20:12:15;;;;;;;31.48;21.40;;;3.70;99.90;;;;;;5096102;28;20044;-62
2021/12/05 20:14:41;;;;;;;32.33;21.25;;;3.70;99.90;;;;;;5095975;28;20148;-63
2021/12/05 20:17:07;;;;;;;32.97;22.23;;;3.60;99.90;;;;;;5096682;28;20090;-62
2021/12/05 20:19:33;;;;;;;;;;;3.60;99.90;;;;;;5097332;28;20609;-62
2021/12/05 20:22:01;;;;;;;31.98;20.92;;;3.60;99.90;;;;;;5115929;28;20332;-63
2021/12/05 20:24:29;;;;;;;32.78;21.60;;;3.60;99.90;;;;;;5114491;28;20060;-62
2021/12/05 20:26:56;;;;;;;29.45;20.33;;;3.70;99.90;;;;;;5111857;28;20043;-64
